createdAt,value
2023-04-26T00:00:27.190Z,89.11
2023-04-26T00:02:07.674Z,88.82
2023-04-26T00:03:48.156Z,88.56
2023-04-26T00:05:28.559Z,88.36
2023-04-26T00:07:08.786Z,88.43
2023-04-26T00:08:49.346Z,88.58
2023-04-26T00:10:29.596Z,88.71
2023-04-26T00:12:10.055Z,88.94
2023-04-26T00:13:50.477Z,89.37
2023-04-26T00:15:30.855Z,89.42
2023-04-26T00:17:11.212Z,89.77
2023-04-26T00:18:51.776Z,89.88
2023-04-26T00:20:32.063Z,90.22
2023-04-26T00:22:12.559Z,90.39
2023-04-26T00:23:52.759Z,90.24
2023-04-26T00:25:33.144Z,90.67
2023-04-26T00:27:13.612Z,90.69
2023-04-26T00:28:54.308Z,90.52
2023-04-26T00:30:34.424Z,90.84
2023-04-26T00:32:14.838Z,90.94
2023-04-26T00:33:55.180Z,91.29
2023-04-26T00:35:35.558Z,91.74
2023-04-26T00:37:15.991Z,91.94
2023-04-26T00:38:56.436Z,91.79
2023-04-26T00:40:36.752Z,91.47
2023-04-26T00:42:17.165Z,91.56
2023-04-26T00:43:57.594Z,91.97
2023-04-26T00:45:37.976Z,92.41
2023-04-26T00:47:18.324Z,92.4
2023-04-26T00:48:58.750Z,92.65
2023-04-26T00:50:39.183Z,93.24
2023-04-26T00:52:19.630Z,93.47
2023-04-26T00:54:00.051Z,93.28
2023-04-26T00:55:40.417Z,93.42
2023-04-26T00:57:20.781Z,93.15
2023-04-26T00:59:01.087Z,93.5
2023-04-26T01:00:41.578Z,93.3
2023-04-26T01:02:22.124Z,93.27
2023-04-26T01:04:02.746Z,93.2
2023-04-26T01:05:42.878Z,93.13
2023-04-26T01:07:23.308Z,92.64
2023-04-26T01:09:03.597Z,92.47
2023-04-26T01:10:43.988Z,92.32
2023-04-26T01:12:24.290Z,91.87
2023-04-26T01:14:04.565Z,91.61
2023-04-26T01:15:45.014Z,91.35
2023-04-26T01:17:25.448Z,91.31
2023-04-26T01:19:05.802Z,91.28
2023-04-26T01:20:46.358Z,91.23
2023-04-26T01:22:26.644Z,91.29
2023-04-26T01:24:07.086Z,91.9
2023-04-26T01:25:47.486Z,92.07
2023-04-26T01:27:27.949Z,92.21
2023-04-26T01:29:08.370Z,92.45
2023-04-26T01:30:48.784Z,92.57
2023-04-26T01:32:29.205Z,92.86
2023-04-26T01:34:09.571Z,93.06
2023-04-26T01:35:49.961Z,92.98
2023-04-26T01:37:30.351Z,92.86
2023-04-26T01:39:10.768Z,92.95
2023-04-26T01:40:51.132Z,92.96
2023-04-26T01:42:31.494Z,92.97
2023-04-26T01:44:11.907Z,92.88
2023-04-26T01:45:52.340Z,93.06
2023-04-26T01:47:32.728Z,93.07
2023-04-26T01:49:13.103Z,93.26
2023-04-26T01:50:53.669Z,93.43
2023-04-26T01:52:34.004Z,93.41
2023-04-26T01:54:14.369Z,93.53
2023-04-26T01:55:54.803Z,93.33
2023-04-26T01:57:35.174Z,93.11
2023-04-26T01:59:15.583Z,93.36
2023-04-26T02:00:56.035Z,93.63
2023-04-26T02:02:36.526Z,93.79
2023-04-26T02:04:16.808Z,94.05
2023-04-26T02:05:57.174Z,94.31
2023-04-26T02:07:37.612Z,94.33
2023-04-26T02:09:18.054Z,94.4
2023-04-26T02:10:58.472Z,94.41
2023-04-26T02:12:38.908Z,94.19
2023-04-26T02:14:19.304Z,94.4
2023-04-26T02:15:59.743Z,94.51
2023-04-26T02:17:40.056Z,94.6
2023-04-26T02:19:20.373Z,94.96
2023-04-26T02:21:00.822Z,95.22
2023-04-26T02:22:41.213Z,95.15
2023-04-26T02:24:21.726Z,95.27
2023-04-26T02:26:02.152Z,95.34
2023-04-26T02:27:42.538Z,95.36
2023-04-26T02:29:39.920Z,95.5
2023-04-26T02:31:03.491Z,95.62
2023-04-26T02:32:43.895Z,95.69
2023-04-26T02:34:24.321Z,95.67
2023-04-26T02:36:04.700Z,95.7
2023-04-26T02:37:45.074Z,95.61
2023-04-26T02:39:25.478Z,95.63
2023-04-26T02:41:05.949Z,95.76
2023-04-26T02:42:46.284Z,95.75
2023-04-26T02:44:26.717Z,95.72
2023-04-26T02:46:07.073Z,95.67
2023-04-26T02:47:47.503Z,95.83
2023-04-26T02:49:27.863Z,95.91
2023-04-26T02:51:08.307Z,95.83
2023-04-26T02:52:48.730Z,95.87
2023-04-26T02:54:29.137Z,96.07
2023-04-26T02:56:09.515Z,96.34
2023-04-26T02:57:49.942Z,96.51
2023-04-26T02:59:30.335Z,96.64
2023-04-26T03:01:10.774Z,96.68
2023-04-26T03:02:51.343Z,96.75
2023-04-26T03:04:31.592Z,96.77
2023-04-26T03:06:11.985Z,96.75
2023-04-26T03:07:52.320Z,96.81
2023-04-26T03:09:32.746Z,96.78
2023-04-26T03:11:13.126Z,96.9
2023-04-26T03:12:53.546Z,96.92
2023-04-26T03:14:33.976Z,96.78
2023-04-26T03:16:14.425Z,96.8
2023-04-26T03:17:54.842Z,96.76
2023-04-26T03:19:35.212Z,96.75
2023-04-26T03:21:15.692Z,96.83
2023-04-26T03:22:56.084Z,96.93
2023-04-26T03:24:36.531Z,97.07
2023-04-26T03:26:16.917Z,97.03
2023-04-26T03:27:57.229Z,97.02
2023-04-26T03:29:37.687Z,97.07
2023-04-26T03:31:18.202Z,97.18
2023-04-26T03:32:58.586Z,97.35
2023-04-26T03:34:38.881Z,97.46
2023-04-26T03:36:19.223Z,97.59
2023-04-26T03:37:59.565Z,97.75
2023-04-26T03:39:40.034Z,97.71
2023-04-26T03:41:20.340Z,97.67
2023-04-26T03:43:00.796Z,97.69
2023-04-26T03:44:41.186Z,97.74
2023-04-26T03:46:21.698Z,97.9
2023-04-26T03:48:02.165Z,97.93
2023-04-26T03:49:42.525Z,97.94
2023-04-26T03:51:22.921Z,97.91
2023-04-26T03:53:03.351Z,97.95
2023-04-26T03:54:43.717Z,98.04
2023-04-26T03:56:24.115Z,98.09
2023-04-26T03:58:04.490Z,98.08
2023-04-26T03:59:44.894Z,98.02
2023-04-26T04:01:25.257Z,98.02
2023-04-26T04:03:05.828Z,98.02
2023-04-26T04:04:46.218Z,98.1
2023-04-26T04:06:26.432Z,98.07
2023-04-26T04:08:06.869Z,98.13
2023-04-26T04:09:47.355Z,98.21
2023-04-26T04:11:27.678Z,98.27
2023-04-26T04:13:08.065Z,98.51
2023-04-26T04:14:48.527Z,98.66
2023-04-26T04:16:28.946Z,98.68
2023-04-26T04:18:09.267Z,98.73
2023-04-26T04:19:49.515Z,98.74
2023-04-26T04:21:29.800Z,98.73
2023-04-26T04:23:10.206Z,98.72
2023-04-26T04:24:50.587Z,98.67
2023-04-26T04:26:30.966Z,98.7
2023-04-26T04:28:11.334Z,98.74
2023-04-26T04:29:51.835Z,98.79
2023-04-26T04:31:32.336Z,98.79
2023-04-26T04:33:12.729Z,98.75
2023-04-26T04:34:53.129Z,98.75
2023-04-26T04:36:33.576Z,98.78
2023-04-26T04:38:14.009Z,98.82
2023-04-26T04:39:54.437Z,98.85
2023-04-26T04:41:34.857Z,98.84
2023-04-26T04:43:15.280Z,98.86
2023-04-26T04:44:55.653Z,98.91
2023-04-26T04:46:36.006Z,98.95
2023-04-26T04:48:16.407Z,98.96
2023-04-26T04:49:56.801Z,99.01
2023-04-26T04:51:37.135Z,99.05
2023-04-26T04:53:17.552Z,99.01
2023-04-26T04:54:57.970Z,99.02
2023-04-26T04:56:38.388Z,99
2023-04-26T04:58:18.858Z,99.02
2023-04-26T04:59:59.147Z,99.04
2023-04-26T05:01:39.527Z,99.01
2023-04-26T05:03:19.929Z,98.99
2023-04-26T05:05:00.188Z,99.02
2023-04-26T05:06:40.609Z,99.05
2023-04-26T05:08:21.013Z,99.14
2023-04-26T05:10:01.426Z,99.24
2023-04-26T05:11:41.852Z,99.38
2023-04-26T05:13:22.291Z,99.39
2023-04-26T05:15:02.788Z,99.34
2023-04-26T05:16:43.199Z,99.33
2023-04-26T05:18:23.618Z,99.29
2023-04-26T05:20:04.043Z,99.24
2023-04-26T05:21:44.455Z,99.29
2023-04-26T05:23:24.799Z,99.29
2023-04-26T05:25:05.188Z,99.33
2023-04-26T05:26:45.580Z,99.34
2023-04-26T05:28:25.939Z,99.33
2023-04-26T05:30:06.379Z,99.31
2023-04-26T05:31:46.787Z,99.22
2023-04-26T05:33:27.175Z,99.12
2023-04-26T05:35:07.574Z,98.92
2023-04-26T05:36:48.054Z,98.8
2023-04-26T05:38:28.466Z,98.64
2023-04-26T05:40:09.035Z,98.44
2023-04-26T05:41:49.343Z,98.3
2023-04-26T05:43:29.683Z,98.07
2023-04-26T05:45:10.096Z,97.8
2023-04-26T05:46:50.517Z,97.61
2023-04-26T05:48:30.884Z,97.41
2023-04-26T05:50:11.308Z,97.21
2023-04-26T05:51:51.710Z,96.99
2023-04-26T05:53:32.099Z,96.76
2023-04-26T05:55:12.509Z,96.53
2023-04-26T05:56:52.887Z,96
2023-04-26T05:58:33.157Z,95.31
2023-04-26T06:00:13.504Z,94.24
2023-04-26T06:01:54.038Z,93.47
2023-04-26T06:03:34.623Z,93.26
2023-04-26T06:05:14.951Z,93.02
2023-04-26T06:06:55.093Z,92.76
2023-04-26T06:08:35.501Z,91.85
2023-04-26T06:10:15.949Z,91.43
2023-04-26T06:11:56.313Z,90.37
2023-04-26T06:13:36.777Z,89.85
2023-04-26T06:15:17.172Z,89.15
2023-04-26T06:16:57.738Z,89.05
2023-04-26T06:18:38.121Z,88.3
2023-04-26T06:20:18.470Z,87.12
2023-04-26T06:21:58.784Z,85.83
2023-04-26T06:23:39.135Z,84.86
2023-04-26T06:25:19.534Z,85.54
2023-04-26T06:26:59.915Z,86.16
2023-04-26T06:28:42.204Z,85.42
2023-04-26T06:30:20.684Z,83.99
2023-04-26T06:32:01.040Z,82.81
2023-04-26T06:33:41.482Z,81.44
2023-04-26T06:35:21.788Z,81.02
2023-04-26T06:37:02.276Z,79.59
2023-04-26T06:38:42.712Z,79.71
2023-04-26T06:40:23.160Z,79.5
2023-04-26T06:42:03.561Z,78.1
2023-04-26T06:43:43.944Z,77.73
2023-04-26T06:45:24.361Z,76.83
2023-04-26T06:47:04.829Z,76.65
2023-04-26T06:48:45.242Z,76.89
2023-04-26T06:50:25.649Z,77.16
2023-04-26T06:52:06.079Z,77.43
2023-04-26T06:53:46.397Z,76.58
2023-04-26T06:55:26.930Z,75.73
2023-04-26T06:57:07.360Z,76.87
2023-04-26T06:58:47.692Z,77.51
2023-04-26T07:00:28.160Z,77.1
2023-04-26T07:02:08.601Z,74.35
2023-04-26T07:03:49.024Z,74.72
2023-04-26T07:05:29.282Z,74.17
2023-04-26T07:07:11.127Z,72.66
2023-04-26T07:08:50.355Z,72.6
2023-04-26T07:10:30.521Z,72.3
2023-04-26T07:12:10.948Z,73.03
2023-04-26T07:13:51.543Z,73.03
2023-04-26T07:15:31.707Z,73.23
2023-04-26T07:17:12.035Z,73.68
2023-04-26T07:18:52.404Z,73.19
2023-04-26T07:20:32.802Z,72.2
2023-04-26T07:22:13.409Z,73.25
2023-04-26T07:23:53.819Z,72.93
2023-04-26T07:25:34.003Z,69.98
2023-04-26T07:27:14.310Z,68.69
2023-04-26T07:28:54.700Z,67.74
2023-04-26T07:30:35.092Z,67.18
2023-04-26T07:32:15.523Z,68.08
2023-04-26T07:33:56.204Z,65.96
2023-04-26T07:35:36.325Z,66.46
2023-04-26T07:37:16.767Z,66.29
2023-04-26T07:38:57.162Z,66.19
2023-04-26T07:40:37.544Z,65.98
2023-04-26T07:42:17.933Z,65.24
2023-04-26T07:43:58.267Z,62.82
2023-04-26T07:45:38.821Z,61.62
2023-04-26T07:47:19.193Z,61.66
2023-04-26T07:48:59.549Z,60.98
2023-04-26T07:50:39.990Z,61.72
2023-04-26T07:52:20.444Z,62.61
2023-04-26T07:54:00.787Z,62.83
2023-04-26T07:55:41.120Z,62.41
2023-04-26T07:57:21.453Z,62.86
2023-04-26T07:59:01.914Z,60.74
2023-04-26T08:00:42.281Z,60.44
2023-04-26T08:02:29.875Z,60.68
2023-04-26T08:04:03.303Z,60.62
2023-04-26T08:05:43.673Z,59.19
2023-04-26T08:07:23.770Z,59.66
2023-04-26T08:09:04.253Z,59.64
2023-04-26T08:10:44.671Z,58.95
2023-04-26T08:12:25.105Z,58.24
2023-04-26T08:14:05.502Z,57.48
2023-04-26T08:15:45.891Z,56.91
2023-04-26T08:17:26.303Z,56.33
2023-04-26T08:19:06.685Z,57.09
2023-04-26T08:20:47.030Z,57.87
2023-04-26T08:22:27.447Z,58.58
2023-04-26T08:24:07.805Z,57.66
2023-04-26T08:25:48.208Z,56.36
2023-04-26T08:27:28.558Z,52.88
2023-04-26T08:29:08.916Z,53.56
2023-04-26T08:30:49.382Z,51.71
2023-04-26T08:32:29.612Z,51.86
2023-04-26T08:34:10.035Z,49.27
2023-04-26T08:35:50.468Z,50.36
2023-04-26T08:37:30.914Z,49.65
2023-04-26T08:39:11.270Z,48.56
2023-04-26T08:40:51.754Z,48.05
2023-04-26T08:42:32.162Z,47.17
2023-04-26T08:44:12.485Z,47.61
2023-04-26T08:45:52.928Z,48.6
2023-04-26T08:47:33.328Z,48.01
2023-04-26T08:49:13.749Z,48.73
2023-04-26T08:50:54.221Z,48.53
2023-04-26T08:52:34.616Z,49.54
2023-04-26T08:54:15.005Z,48.31
2023-04-26T08:55:55.551Z,49.12
2023-04-26T08:57:35.939Z,49.67
2023-04-26T08:59:16.324Z,48.64
2023-04-26T09:00:56.836Z,48.93
2023-04-26T09:02:37.284Z,48.64
2023-04-26T09:04:17.780Z,49.52
2023-04-26T09:05:57.985Z,50.59
2023-04-26T09:07:38.346Z,50.84
2023-04-26T09:09:18.708Z,51.34
2023-04-26T09:10:59.126Z,51.9
2023-04-26T09:12:39.521Z,51.98
2023-04-26T09:14:19.939Z,52.54
2023-04-26T09:16:01.977Z,50.32
2023-04-26T09:17:40.827Z,51.04
2023-04-26T09:19:21.216Z,48.76
2023-04-26T09:21:01.611Z,48.31
2023-04-26T09:22:42.006Z,47.26
2023-04-26T09:24:22.411Z,47.66
2023-04-26T09:26:02.889Z,48.41
2023-04-26T09:27:43.169Z,47.86
2023-04-26T09:29:23.508Z,47.67
2023-04-26T09:31:03.941Z,46.95
2023-04-26T09:32:44.401Z,45.56
2023-04-26T09:34:24.825Z,45.3
2023-04-26T09:36:05.237Z,46.12
2023-04-26T09:37:57.286Z,46.71
2023-04-26T09:39:26.121Z,47.12
2023-04-26T09:41:06.584Z,47.75
2023-04-26T09:42:47.026Z,45.4
2023-04-26T09:44:27.384Z,45.76
2023-04-26T09:46:07.825Z,47.86
2023-04-26T09:47:48.204Z,47.16
2023-04-26T09:49:28.640Z,49.23
2023-04-26T09:51:09.056Z,45.76
2023-04-26T09:52:49.480Z,45.55
2023-04-26T09:54:29.921Z,44.46
2023-04-26T09:56:10.316Z,43.1
2023-04-26T09:57:50.741Z,44.86
2023-04-26T09:59:31.201Z,43.72
2023-04-26T10:01:11.780Z,44.79
2023-04-26T10:02:52.094Z,45.27
2023-04-26T10:04:32.472Z,45.84
2023-04-26T10:06:12.878Z,45.48
2023-04-26T10:07:53.227Z,42.84
2023-04-26T10:09:33.601Z,42.24
2023-04-26T10:11:14.106Z,41.45
2023-04-26T10:13:00.273Z,43.19
2023-04-26T10:14:40.644Z,41.16
2023-04-26T10:16:21.024Z,42.88
2023-04-26T10:18:01.303Z,40.7
2023-04-26T10:19:41.621Z,41.87
2023-04-26T10:21:21.993Z,43.14
2023-04-26T10:23:02.453Z,41.44
2023-04-26T10:24:42.813Z,43.53
2023-04-26T10:26:23.242Z,44.18
2023-04-26T10:28:03.610Z,45.75
2023-04-26T10:29:44.006Z,47.13
2023-04-26T10:31:24.422Z,47.38
2023-04-26T10:33:04.731Z,47.14
2023-04-26T10:34:45.124Z,47.15
2023-04-26T10:36:25.545Z,48.94
2023-04-26T10:38:06.007Z,50.44
2023-04-26T10:39:46.464Z,49.71
2023-04-26T10:41:26.690Z,49.61
2023-04-26T10:43:07.152Z,50.02
2023-04-26T10:44:47.488Z,50.6
2023-04-26T10:46:28.021Z,51.32
2023-04-26T10:48:08.399Z,50.84
2023-04-26T10:49:48.919Z,51.35
2023-04-26T10:51:29.158Z,51.4
2023-04-26T10:53:09.477Z,51.01
2023-04-26T10:54:49.840Z,50.59
2023-04-26T10:56:30.275Z,51.83
2023-04-26T10:58:10.689Z,50.63
2023-04-26T10:59:54.782Z,52.09
2023-04-26T11:01:31.658Z,51.48
2023-04-26T11:03:12.210Z,50.53
2023-04-26T11:04:52.554Z,49.46
2023-04-26T11:06:32.843Z,49.88
2023-04-26T11:08:13.309Z,47.63
2023-04-26T11:09:53.607Z,48.25
2023-04-26T11:11:34.029Z,48.28
2023-04-26T11:13:14.480Z,48.71
2023-04-26T11:14:54.875Z,48.79
2023-04-26T11:16:35.387Z,48.9
2023-04-26T11:18:15.725Z,49.09
2023-04-26T11:19:56.094Z,49.12
2023-04-26T11:21:36.537Z,49.16
2023-04-26T11:23:16.877Z,49.46
2023-04-26T11:24:57.328Z,48.09
2023-04-26T11:26:37.697Z,49.12
2023-04-26T11:28:18.129Z,50.4
2023-04-26T11:29:58.587Z,50.03
2023-04-26T11:31:39.107Z,51.95
2023-04-26T11:33:19.403Z,50.74
2023-04-26T11:34:59.863Z,51.68
2023-04-26T11:36:40.263Z,50.69
2023-04-26T11:38:20.704Z,50.87
2023-04-26T11:40:01.192Z,50.01
2023-04-26T11:41:41.546Z,51.09
2023-04-26T11:43:22.124Z,49.97
2023-04-26T11:45:02.482Z,49.89
2023-04-26T11:46:42.942Z,50.63
2023-04-26T11:48:23.343Z,51.13
2023-04-26T11:50:03.642Z,50.89
2023-04-26T11:51:43.943Z,50.27
2023-04-26T11:53:24.314Z,49.34
2023-04-26T11:55:04.722Z,48.23
2023-04-26T11:56:45.190Z,48.4
2023-04-26T11:58:25.652Z,48.17
2023-04-26T12:00:06.189Z,48.56
2023-04-26T12:01:46.571Z,49.97
2023-04-26T12:03:27.098Z,48.4
2023-04-26T12:05:07.407Z,48.47
2023-04-26T12:06:47.673Z,49.12
2023-04-26T12:08:28.085Z,49.46
2023-04-26T12:10:08.475Z,48.04
2023-04-26T12:11:48.802Z,48.2
2023-04-26T12:13:29.301Z,48.32
2023-04-26T12:15:09.694Z,48.2
2023-04-26T12:16:50.208Z,48.46
2023-04-26T12:18:30.562Z,49.41
2023-04-26T12:20:11.127Z,49.84
2023-04-26T12:21:51.392Z,49.85
2023-04-26T12:23:31.898Z,49.49
2023-04-26T12:25:12.233Z,49.6
2023-04-26T12:26:52.538Z,50.29
2023-04-26T12:28:32.904Z,51.34
2023-04-26T12:30:13.305Z,51.39
2023-04-26T12:31:53.572Z,51.78
2023-04-26T12:33:34.072Z,51.38
2023-04-26T12:35:14.465Z,51.47
2023-04-26T12:36:54.997Z,51.88
2023-04-26T12:38:35.324Z,52.72
2023-04-26T12:40:15.778Z,51.74
2023-04-26T12:41:56.184Z,51.79
2023-04-26T12:43:36.628Z,51.3
2023-04-26T12:45:16.992Z,51.66
2023-04-26T12:46:57.418Z,49.94
2023-04-26T12:48:37.786Z,48.26
2023-04-26T12:50:18.808Z,48.57
2023-04-26T12:51:58.645Z,48.01
2023-04-26T12:53:38.992Z,48.61
2023-04-26T12:55:19.444Z,48.55
2023-04-26T12:56:59.919Z,48.08
2023-04-26T12:58:40.330Z,48.16
2023-04-26T13:00:20.786Z,48.62
2023-04-26T13:02:01.152Z,49.5
2023-04-26T13:03:41.756Z,48.42
2023-04-26T13:05:21.928Z,48.91
2023-04-26T13:07:02.399Z,47.75
2023-04-26T13:08:42.749Z,48.25
2023-04-26T13:10:23.118Z,48.01
2023-04-26T13:12:03.515Z,47.43
2023-04-26T13:13:44.896Z,47.45
2023-04-26T13:15:24.367Z,48.28
2023-04-26T13:17:04.758Z,48.08
2023-04-26T13:18:45.222Z,46.92
2023-04-26T13:20:26.759Z,46.14
2023-04-26T13:22:06.192Z,46.12
2023-04-26T13:23:46.613Z,45.36
2023-04-26T13:25:27.035Z,45.93
2023-04-26T13:27:07.377Z,45.49
2023-04-26T13:28:47.779Z,45.9
2023-04-26T13:30:28.149Z,45.99
2023-04-26T13:32:08.609Z,45.9
2023-04-26T13:33:48.983Z,44.82
2023-04-26T13:35:29.339Z,44.82
2023-04-26T13:37:09.679Z,45.53
2023-04-26T13:38:50.046Z,44.82
2023-04-26T13:40:30.525Z,46.39
2023-04-26T13:42:10.916Z,45.08
2023-04-26T13:43:51.365Z,45.88
2023-04-26T13:45:31.833Z,45.24
2023-04-26T13:47:12.260Z,45.39
2023-04-26T13:48:52.693Z,45.2
2023-04-26T13:50:33.066Z,44.21
2023-04-26T13:52:13.444Z,44.31
2023-04-26T13:53:53.802Z,42.77
2023-04-26T13:55:34.212Z,42.46
2023-04-26T13:57:14.613Z,43.32
2023-04-26T13:58:55.015Z,42.7
2023-04-26T14:00:35.422Z,40.58
2023-04-26T14:02:16.066Z,40.58
2023-04-26T14:03:56.629Z,43.71
2023-04-26T14:05:36.748Z,42.41
2023-04-26T14:07:17.133Z,43.88
2023-04-26T14:08:57.541Z,42.25
2023-04-26T14:10:37.885Z,43.37
2023-04-26T14:12:18.282Z,44.09
2023-04-26T14:13:58.627Z,45.01
2023-04-26T14:15:39.010Z,45.22
2023-04-26T14:17:19.421Z,45.58
2023-04-26T14:18:59.775Z,46.81
2023-04-26T14:20:40.205Z,46.03
2023-04-26T14:22:20.577Z,47.87
2023-04-26T14:24:00.913Z,47.77
2023-04-26T14:25:41.348Z,48.64
2023-04-26T14:27:21.836Z,48.83
2023-04-26T14:29:02.235Z,46.52
2023-04-26T14:30:42.695Z,46.73
2023-04-26T14:32:23.278Z,46.39
2023-04-26T14:34:03.574Z,47.12
2023-04-26T14:35:43.965Z,47.7
2023-04-26T14:37:24.427Z,47.76
2023-04-26T14:39:04.832Z,48.01
2023-04-26T14:40:45.190Z,49.25
2023-04-26T14:42:25.605Z,48.79
2023-04-26T14:44:06.044Z,49.49
2023-04-26T14:45:46.472Z,50.28
2023-04-26T14:47:27.003Z,50.58
2023-04-26T14:49:07.379Z,50.91
2023-04-26T14:50:47.832Z,51.62
2023-04-26T14:52:28.286Z,50.12
2023-04-26T14:54:08.657Z,50.83
2023-04-26T14:55:48.970Z,51.04
2023-04-26T14:57:29.429Z,51.08
2023-04-26T14:59:09.833Z,50.49
2023-04-26T15:00:50.352Z,51.19
2023-04-26T15:02:30.788Z,51.16
2023-04-26T15:04:11.121Z,50.57
2023-04-26T15:05:51.377Z,50.69
2023-04-26T15:07:32.848Z,51.38
2023-04-26T15:09:12.041Z,49.95
2023-04-26T15:10:52.421Z,49.95
2023-04-26T15:12:32.867Z,50.93
2023-04-26T15:14:13.191Z,50.17
2023-04-26T15:15:53.663Z,50.71
2023-04-26T15:17:34.062Z,49.21
2023-04-26T15:19:14.503Z,48.81
2023-04-26T15:20:54.799Z,50.33
2023-04-26T15:22:38.004Z,49.63
2023-04-26T15:24:15.649Z,50.56
2023-04-26T15:25:56.041Z,49.91
2023-04-26T15:27:36.510Z,50.13
2023-04-26T15:29:16.856Z,49.3
2023-04-26T15:30:57.237Z,48.92
2023-04-26T15:32:37.769Z,48.57
2023-04-26T15:34:18.064Z,48.14
2023-04-26T15:35:58.423Z,48.16
2023-04-26T15:37:38.786Z,48.38
2023-04-26T15:39:19.135Z,48.42
2023-04-26T15:40:59.585Z,48.04
2023-04-26T15:42:39.977Z,48.24
2023-04-26T15:44:20.375Z,48.29
2023-04-26T15:46:00.812Z,48.86
2023-04-26T15:47:41.202Z,49.07
2023-04-26T15:49:21.454Z,48.91
2023-04-26T15:51:01.944Z,48.11
2023-04-26T15:52:42.348Z,48.25
2023-04-26T15:54:22.784Z,49.21
2023-04-26T15:56:03.262Z,50.03
2023-04-26T15:57:43.609Z,48.26
2023-04-26T15:59:23.915Z,49.04
2023-04-26T16:01:04.436Z,49.08
2023-04-26T16:02:48.013Z,48.69
2023-04-26T16:04:25.514Z,49.19
2023-04-26T16:06:05.576Z,49.39
2023-04-26T16:07:45.984Z,48.96
2023-04-26T16:09:26.414Z,48.8
2023-04-26T16:11:06.823Z,49.05
2023-04-26T16:12:47.250Z,50.88
2023-04-26T16:14:27.644Z,49.5
2023-04-26T16:16:08.251Z,49.48
2023-04-26T16:17:48.496Z,50.41
2023-04-26T16:19:28.838Z,48.82
2023-04-26T16:21:09.288Z,49.14
2023-04-26T16:22:49.728Z,48.96
2023-04-26T16:24:30.162Z,49.28
2023-04-26T16:26:10.576Z,49.66
2023-04-26T16:27:50.985Z,49.49
2023-04-26T16:29:31.412Z,49.41
2023-04-26T16:31:11.902Z,49.59
2023-04-26T16:32:52.436Z,49.85
2023-04-26T16:34:32.807Z,50.47
2023-04-26T16:36:13.239Z,50.26
2023-04-26T16:37:53.618Z,50.11
2023-04-26T16:39:33.953Z,50.34
2023-04-26T16:41:14.347Z,50.57
2023-04-26T16:42:54.854Z,51.16
2023-04-26T16:44:35.266Z,51.25
2023-04-26T16:46:15.674Z,51.28
2023-04-26T16:47:56.179Z,50.99
2023-04-26T16:49:36.510Z,52.92
2023-04-26T16:51:16.931Z,52.08
2023-04-26T16:52:57.258Z,52.79
2023-04-26T16:54:37.671Z,53.25
2023-04-26T16:56:18.051Z,51.87
2023-04-26T16:57:58.427Z,51.77
2023-04-26T16:59:38.796Z,51.24
2023-04-26T17:01:19.250Z,50.72
2023-04-26T17:02:59.693Z,50.46
2023-04-26T17:04:40.151Z,50.05
2023-04-26T17:06:20.449Z,49.18
2023-04-26T17:08:00.887Z,48.26
2023-04-26T17:09:41.313Z,48.33
2023-04-26T17:11:21.787Z,48.76
2023-04-26T17:13:02.191Z,47.71
2023-04-26T17:14:42.620Z,47.67
2023-04-26T17:16:23.141Z,47.53
2023-04-26T17:18:03.450Z,48.19
2023-04-26T17:19:43.787Z,47.57
2023-04-26T17:21:24.244Z,47.61
2023-04-26T17:23:04.657Z,47.43
2023-04-26T17:24:45.131Z,48.17
2023-04-26T17:26:25.491Z,48.62
2023-04-26T17:28:05.821Z,48.63
2023-04-26T17:29:46.125Z,49.8
2023-04-26T17:31:26.524Z,50.42
2023-04-26T17:33:07.000Z,50.05
2023-04-26T17:34:50.362Z,50.58
2023-04-26T17:36:27.716Z,50.41
2023-04-26T17:38:08.084Z,50.7
2023-04-26T17:39:48.674Z,50.55
2023-04-26T17:41:29.082Z,51.18
2023-04-26T17:43:09.476Z,51.55
2023-04-26T17:44:49.903Z,51.33
2023-04-26T17:46:30.358Z,52.56
2023-04-26T17:48:10.870Z,53.3
2023-04-26T17:49:51.364Z,53.92
2023-04-26T17:51:31.726Z,53.66
2023-04-26T17:53:11.980Z,54.72
2023-04-26T17:54:52.431Z,54.44
2023-04-26T17:56:35.817Z,55.15
2023-04-26T17:58:13.178Z,56.38
2023-04-26T17:59:53.669Z,56.83
2023-04-26T18:01:34.225Z,56.69
2023-04-26T18:03:14.767Z,57.15
2023-04-26T18:04:55.276Z,57.23
2023-04-26T18:06:38.352Z,57.71
2023-04-26T18:08:15.688Z,57.92
2023-04-26T18:09:56.030Z,59.27
2023-04-26T18:11:36.344Z,60.02
2023-04-26T18:13:16.775Z,61.21
2023-04-26T18:14:57.096Z,61.57
2023-04-26T18:16:37.544Z,62.21
2023-04-26T18:18:17.987Z,63.31
2023-04-26T18:19:58.360Z,63.51
2023-04-26T18:21:38.759Z,64.21
2023-04-26T18:23:19.498Z,64.48
2023-04-26T18:24:59.644Z,65.36
2023-04-26T18:26:41.107Z,66.27
2023-04-26T18:28:20.398Z,67.42
2023-04-26T18:30:00.883Z,68.96
2023-04-26T18:31:44.209Z,70.29
2023-04-26T18:33:24.553Z,71.1
2023-04-26T18:35:01.891Z,71.85
2023-04-26T18:36:42.197Z,73.31
2023-04-26T18:38:22.677Z,73.61
2023-04-26T18:40:03.032Z,73.85
2023-04-26T18:41:43.415Z,74.5
2023-04-26T18:43:30.837Z,74.74
2023-04-26T18:45:04.259Z,75.29
2023-04-26T18:46:44.715Z,75.77
2023-04-26T18:48:25.079Z,76.28
2023-04-26T18:50:05.505Z,76.2
2023-04-26T18:51:45.931Z,77.12
2023-04-26T18:53:26.373Z,77.48
2023-04-26T18:55:06.778Z,77.54
2023-04-26T18:56:47.206Z,77.99
2023-04-26T18:58:27.626Z,78.47
2023-04-26T19:00:08.080Z,78.97
2023-04-26T19:01:48.516Z,79.88
2023-04-26T19:03:28.981Z,80.17
2023-04-26T19:05:16.300Z,80.84
2023-04-26T19:06:49.512Z,81.56
2023-04-26T19:08:29.997Z,81.81
2023-04-26T19:10:10.376Z,82.52
2023-04-26T19:11:50.785Z,82.69
2023-04-26T19:13:31.217Z,82.38
2023-04-26T19:15:11.670Z,82.53
2023-04-26T19:16:52.027Z,82.87
2023-04-26T19:18:32.489Z,83.07
2023-04-26T19:20:12.931Z,83
2023-04-26T19:21:53.379Z,83.29
2023-04-26T19:23:33.691Z,84.06
2023-04-26T19:25:14.026Z,83.53
2023-04-26T19:26:54.465Z,84.15
2023-04-26T19:28:34.883Z,83.97
2023-04-26T19:30:15.310Z,84.43
2023-04-26T19:31:55.791Z,84.71
2023-04-26T19:33:36.104Z,84.63
2023-04-26T19:35:16.517Z,84.71
2023-04-26T19:36:56.888Z,84.96
2023-04-26T19:38:37.464Z,84.83
2023-04-26T19:40:17.735Z,86.09
2023-04-26T19:41:59.124Z,86.7
2023-04-26T19:43:38.385Z,86.93
2023-04-26T19:45:18.733Z,87.44
2023-04-26T19:46:59.157Z,87.19
2023-04-26T19:48:39.342Z,86.95
2023-04-26T19:50:19.818Z,86.96
2023-04-26T19:52:00.253Z,87.64
2023-04-26T19:53:40.567Z,88.11
2023-04-26T19:55:20.965Z,88.28
2023-04-26T19:57:01.416Z,88.03
2023-04-26T19:58:41.876Z,88.17
2023-04-26T20:00:22.361Z,88.23
2023-04-26T20:02:02.927Z,88.32
2023-04-26T20:03:43.442Z,88.43
2023-04-26T20:05:23.605Z,88.57
2023-04-26T20:07:04.031Z,89.32
2023-04-26T20:08:44.343Z,89.06
2023-04-26T20:10:24.863Z,88.79
2023-04-26T20:12:05.231Z,89.01
2023-04-26T20:13:45.600Z,89.36
2023-04-26T20:15:26.064Z,89.47
2023-04-26T20:17:06.478Z,89.79
2023-04-26T20:18:46.825Z,90.46
2023-04-26T20:20:27.264Z,90.23
2023-04-26T20:22:07.668Z,90.29
2023-04-26T20:23:48.005Z,90.75
2023-04-26T20:25:28.409Z,90.88
2023-04-26T20:27:08.770Z,90.81
2023-04-26T20:28:49.073Z,90.75
2023-04-26T20:30:29.376Z,90.6
2023-04-26T20:32:09.846Z,90.6
2023-04-26T20:33:50.226Z,90.26
2023-04-26T20:35:30.633Z,90.52
2023-04-26T20:37:11.002Z,90.12
2023-04-26T20:38:51.370Z,90.81
2023-04-26T20:40:31.742Z,90.84
2023-04-26T20:42:12.169Z,90.81
2023-04-26T20:43:52.608Z,90.85
2023-04-26T20:45:33.050Z,91.07
2023-04-26T20:47:13.432Z,91.29
2023-04-26T20:48:53.833Z,91.16
2023-04-26T20:50:36.424Z,91.42
2023-04-26T20:52:14.644Z,91.55
2023-04-26T20:53:55.104Z,91.27
2023-04-26T20:55:35.486Z,91.61
2023-04-26T20:57:15.961Z,91.61
2023-04-26T20:58:56.340Z,91.43
2023-04-26T21:00:36.691Z,92.14
2023-04-26T21:02:17.171Z,92.83
2023-04-26T21:03:57.656Z,93.07
2023-04-26T21:05:37.957Z,93.32
2023-04-26T21:07:18.329Z,93.28
2023-04-26T21:08:58.815Z,92.95
2023-04-26T21:10:39.099Z,92.54
2023-04-26T21:12:19.508Z,92.81
2023-04-26T21:13:59.788Z,92.68
2023-04-26T21:15:40.156Z,92.47
2023-04-26T21:17:20.537Z,92.82
2023-04-26T21:19:00.825Z,93.16
2023-04-26T21:20:41.168Z,92.9
2023-04-26T21:22:21.671Z,93
2023-04-26T21:24:02.107Z,92.71
2023-04-26T21:25:42.505Z,92.23
2023-04-26T21:27:23.042Z,92.1
2023-04-26T21:29:03.377Z,92.26
2023-04-26T21:30:43.754Z,92.07
2023-04-26T21:32:24.113Z,91.7
2023-04-26T21:34:04.565Z,91.87
2023-04-26T21:35:44.913Z,92.43
2023-04-26T21:37:25.286Z,92.6